Time;durP1;ratioP1;P1;durP2;ratioP2;P2;SDS_P1;SDS_P2;PMS_P1;PMS_P2;Temp;Humidity;BMP_temperature;BMP_pressure;BME280_temperature;BME280_humidity;BME280_pressure;Samples;Min_cycle;Max_cycle;Signal;HPM_P1;HPM_P2
2022/09/08 00:01:14;;;;;;;;;;;;;;;;;;5062140;28;19919;-68
2022/09/08 00:03:39;;;;;;;;;;;;;;;;;;5076015;28;19912;-67
2022/09/08 00:06:04;;;;;;;;;;;;;;;;;;5077940;28;19916;-66
2022/09/08 00:08:30;;;;;;;;;;;;;;;;;;5065035;28;19912;-67
2022/09/08 00:10:55;;;;;;;;;;;;;;;;;;5073378;28;19935;-66
2022/09/08 00:13:20;;;;;;;;;;;;;;;;;;5080511;28;19955;-66
2022/09/08 00:15:45;;;;;;;;;;;;;;;;;;5076550;28;19947;-66
2022/09/08 00:18:10;;;;;;;;;;;;;;;;;;5084830;28;19913;-67
2022/09/08 00:20:35;;;;;;;;;;;;;;;;;;5061192;28;19959;-66
2022/09/08 00:23:01;;;;;;;;;;;;;;;;;;5069243;28;20269;-67
2022/09/08 00:25:26;;;;;;;;;;;;;;;;;;5082194;28;19919;-67
2022/09/08 00:27:51;;;;;;;;;;;;;;;;;;5091712;28;19999;-66
2022/09/08 00:30:16;;;;;;;;;;;;;;;;;;5064692;28;19920;-66
2022/09/08 00:32:42;;;;;;;;;;;;;;;;;;5087851;28;20300;-66
2022/09/08 00:35:10;;;;;;;;;;;;;;;;;;5082094;28;19912;-67
2022/09/08 00:37:35;;;;;;;;;;;;;;;;;;5074762;28;19913;-66
2022/09/08 00:40:01;;;;;;;;;;;;;;;;;;5076536;28;19912;-67
2022/09/08 00:42:26;;;;;;;;;;;;;;;;;;5085519;28;19978;-67
2022/09/08 00:44:53;;;;;;;;;;;;;;;;;;5074605;28;19935;-67
2022/09/08 00:47:18;;;;;;;;;;;;;;;;;;5069615;28;19931;-67
2022/09/08 00:49:44;;;;;;;;;;;;;;;;;;5087151;28;19912;-67
2022/09/08 00:52:09;;;;;;;;;;;;;;;;;;5074720;28;19924;-66
2022/09/08 00:54:34;;;;;;;;;;;;;;;;;;5060549;28;19912;-67
2022/09/08 00:56:59;;;;;;;;;;;;;;;;;;5063592;28;19955;-67
2022/09/08 00:59:24;;;;;;;;;;;;;;;;;;5077430;28;19912;-67
2022/09/08 01:01:50;;;;;;;;;;;;;;;;;;5070548;28;19916;-67
2022/09/08 01:04:15;;;;;;;;;;;;;;;;;;5054136;28;19919;-66
2022/09/08 01:14:52;;;;;;;;;;;;;;;;;;5079214;28;19928;-67
2022/09/08 01:17:17;;;;;;;;;;;;;;;;;;5069237;28;20280;-66
2022/09/08 01:19:42;;;;;;;;;;;;;;;;;;5105085;28;19931;-66
2022/09/08 01:22:09;;;;;;;;;;;;;;;;;;5085332;28;19997;-66
2022/09/08 01:24:34;;;;;;;;;;;;;;;;;;5079974;28;19918;-66
2022/09/08 01:27:00;;;;;;;;;;;;;;;;;;5072252;28;19924;-66
2022/09/08 01:29:25;;;;;;;;;;;;;;;;;;5090006;28;19912;-67
2022/09/08 01:31:50;;;;;;;;;;;;;;;;;;5078329;28;19919;-67
2022/09/08 01:34:15;;;;;;;;;;;;;;;;;;5076546;28;19920;-67
2022/09/08 01:36:40;;;;;;;;;;;;;;;;;;5056005;28;19912;-67
2022/09/08 01:39:05;;;;;;;;;;;;;;;;;;5067418;28;20011;-67
2022/09/08 01:41:30;;;;;;;;;;;;;;;;;;5071487;28;19939;-67
2022/09/08 01:43:56;;;;;;;;;;;;;;;;;;5070732;28;20426;-67
2022/09/08 01:46:21;;;;;;;;;;;;;;;;;;5074184;28;20386;-66
2022/09/08 01:48:46;;;;;;;;;;;;;;;;;;5053736;28;20364;-66
2022/09/08 01:51:11;;;;;;;;;;;;;;;;;;5061147;28;19913;-67
2022/09/08 01:53:36;;;;;;;;;;;;;;;;;;5054706;28;20423;-67
2022/09/08 01:56:01;;;;;;;;;;;;;;;;;;5072926;28;20376;-67
2022/09/08 01:58:27;;;;;;;;;;;;;;;;;;5082332;28;19915;-67
2022/09/08 02:00:52;;;;;;;;;;;;;;;;;;5078326;28;20003;-67
2022/09/08 02:03:17;;;;;;;;;;;;;;;;;;5083579;28;19909;-67
2022/09/08 02:05:42;;;;;;;;;;;;;;;;;;5094522;28;19920;-67
2022/09/08 02:08:07;;;;;;;;;;;;;;;;;;5088594;28;20053;-67
2022/09/08 02:10:32;;;;;;;;;;;;;;;;;;5074317;28;19912;-67
2022/09/08 02:12:58;;;;;;;;;;;;;;;;;;5061617;28;20017;-67
2022/09/08 02:15:23;;;;;;;;;;;;;;;;;;5079655;28;19920;-67
2022/09/08 02:17:48;;;;;;;;;;;;;;;;;;5089079;28;19918;-67
2022/09/08 02:20:15;;;;;;;;;;;;;;;;;;5085263;28;19957;-67
2022/09/08 02:22:40;;;;;;;;;;;;;;;;;;5067566;28;20364;-68
2022/09/08 02:25:05;;;;;;;;;;;;;;;;;;5074506;28;19913;-67
2022/09/08 02:27:30;;;;;;;;;;;;;;;;;;5078717;28;19920;-68
2022/09/08 02:29:55;;;;;;;;;;;;;;;;;;5078407;28;19912;-66
2022/09/08 02:32:20;;;;;;;;;;;;;;;;;;5062710;28;19926;-67
2022/09/08 02:34:46;;;;;;;;;;;;;;;;;;5085738;28;19912;-67
2022/09/08 02:37:11;;;;;;;;;;;;;;;;;;5079941;28;19912;-67
2022/09/08 02:39:36;;;;;;;;;;;;;;;;;;5082700;28;20011;-67
2022/09/08 02:42:01;;;;;;;;;;;;;;;;;;5084243;28;19912;-67
2022/09/08 02:44:27;;;;;;;;;;;;;;;;;;5055523;28;20356;-67
2022/09/08 02:46:52;;;;;;;;;;;;;;;;;;5079294;28;20043;-67
2022/09/08 02:49:17;;;;;;;;;;;;;;;;;;5088999;28;19965;-67
2022/09/08 02:51:42;;;;;;;;;;;;;;;;;;5066768;28;20002;-68
2022/09/08 02:54:07;;;;;;;;;;;;;;;;;;5080680;28;19919;-67
2022/09/08 02:56:32;;;;;;;;;;;;;;;;;;5072864;28;19938;-67
2022/09/08 02:58:58;;;;;;;;;;;;;;;;;;5085000;28;19912;-67
2022/09/08 03:01:23;;;;;;;;;;;;;;;;;;5071331;28;19916;-66
2022/09/08 03:03:48;;;;;;;;;;;;;;;;;;5060903;28;19919;-67
2022/09/08 03:06:13;;;;;;;;;;;;;;;;;;5086835;28;19974;-68
2022/09/08 03:08:38;;;;;;;;;;;;;;;;;;5076241;28;20148;-67
2022/09/08 03:11:03;;;;;;;;;;;;;;;;;;5080035;28;19913;-68
2022/09/08 03:13:28;;;;;;;;;;;;;;;;;;5086401;28;19912;-67
2022/09/08 03:15:54;;;;;;;;;;;;;;;;;;5086280;28;19920;-68
2022/09/08 03:18:19;;;;;;;;;;;;;;;;;;5090624;28;20259;-68
2022/09/08 03:20:45;;;;;;;;;;;;;;;;;;5080929;28;20248;-68
2022/09/08 03:23:10;;;;;;;;;;;;;;;;;;5086537;28;19998;-68
2022/09/08 03:25:36;;;;;;;;;;;;;;;;;;5079072;28;19912;-68
2022/09/08 03:28:01;;;;;;;;;;;;;;;;;;5081168;28;19912;-68
2022/09/08 03:30:26;;;;;;;;;;;;;;;;;;5092316;28;19961;-68
2022/09/08 03:32:51;;;;;;;;;;;;;;;;;;5074072;28;19961;-67
2022/09/08 03:35:16;;;;;;;;;;;;;;;;;;5087571;28;19908;-68
2022/09/08 03:37:41;;;;;;;;;;;;;;;;;;5080716;28;19922;-68
2022/09/08 03:40:06;;;;;;;;;;;;;;;;;;5071942;28;19915;-68
2022/09/08 03:42:32;;;;;;;;;;;;;;;;;;5086151;28;20292;-67
2022/09/08 03:44:57;;;;;;;;;;;;;;;;;;5057052;28;19920;-67
2022/09/08 03:47:23;;;;;;;;;;;;;;;;;;5086668;28;20379;-67
2022/09/08 03:49:48;;;;;;;;;;;;;;;;;;5080489;28;20281;-67
2022/09/08 03:52:13;;;;;;;;;;;;;;;;;;5056616;28;19913;-67
2022/09/08 03:54:47;;;;;;;;;;;;;;;;;;5076430;28;20344;-67
2022/09/08 03:57:12;;;;;;;;;;;;;;;;;;5077291;28;19982;-66
2022/09/08 03:59:38;;;;;;;;;;;;;;;;;;5087441;28;19916;-67
2022/09/08 04:02:03;;;;;;;;;;;;;;;;;;5069321;28;20299;-67
2022/09/08 04:04:29;;;;;;;;;;;;;;;;;;5060395;28;20261;-66
2022/09/08 04:06:54;;;;;;;;;;;;;;;;;;5071671;28;19923;-67
2022/09/08 04:09:19;;;;;;;;;;;;;;;;;;5067518;28;20280;-67
2022/09/08 04:11:44;;;;;;;;;;;;;;;;;;5059200;28;20368;-68
2022/09/08 04:14:09;;;;;;;;;;;;;;;;;;5061119;28;19912;-68
2022/09/08 04:16:35;;;;;;;;;;;;;;;;;;5055229;28;19924;-67
2022/09/08 04:19:00;;;;;;;;;;;;;;;;;;5067621;28;19919;-67
2022/09/08 04:21:25;;;;;;;;;;;;;;;;;;5055163;28;19913;-67
2022/09/08 04:23:51;;;;;;;;;;;;;;;;;;5072646;28;19962;-67
2022/09/08 04:26:16;;;;;;;;;;;;;;;;;;5078197;28;19984;-68
2022/09/08 04:28:41;;;;;;;;;;;;;;;;;;5085330;28;19916;-67
2022/09/08 04:31:06;;;;;;;;;;;;;;;;;;5097833;28;19998;-67
2022/09/08 04:33:31;;;;;;;;;;;;;;;;;;5061027;28;19920;-67
2022/09/08 04:35:57;;;;;;;;;;;;;;;;;;5078701;28;20289;-67
2022/09/08 04:38:22;;;;;;;;;;;;;;;;;;5066415;28;19916;-60
2022/09/08 04:40:47;;;;;;;;;;;;;;;;;;5079028;28;19913;-65
2022/09/08 04:43:12;;;;;;;;;;;;;;;;;;5090467;28;19999;-65
2022/09/08 04:45:37;;;;;;;;;;;;;;;;;;5089012;28;19965;-65
2022/09/08 04:48:02;;;;;;;;;;;;;;;;;;5100909;28;19924;-65
2022/09/08 04:50:27;;;;;;;;;;;;;;;;;;5063699;28;19920;-65
2022/09/08 04:52:52;;;;;;;;;;;;;;;;;;5063367;28;19966;-61
2022/09/08 04:55:18;;;;;;;;;;;;;;;;;;5077044;28;19908;-65
2022/09/08 04:57:43;;;;;;;;;;;;;;;;;;5079534;28;19912;-66
2022/09/08 05:00:08;;;;;;;;;;;;;;;;;;5080591;28;19908;-66
2022/09/08 05:02:33;;;;;;;;;;;;;;;;;;5086258;28;19965;-65
2022/09/08 05:04:58;;;;;;;;;;;;;;;;;;5085167;28;19934;-65
2022/09/08 05:07:23;;;;;;;;;;;;;;;;;;5075410;28;20328;-65
2022/09/08 05:09:48;;;;;;;;;;;;;;;;;;5086450;28;19909;-65
2022/09/08 05:12:14;;;;;;;;;;;;;;;;;;5074711;28;19954;-65
2022/09/08 05:14:39;;;;;;;;;;;;;;;;;;5062383;28;19912;-65
2022/09/08 05:17:04;;;;;;;;;;;;;;;;;;5065580;28;20009;-66
2022/09/08 05:19:31;;;;;;;;;;;;;;;;;;5085438;28;20399;-66
2022/09/08 05:21:56;;;;;;;;;;;;;;;;;;5083390;28;20372;-66
2022/09/08 05:24:21;;;;;;;;;;;;;;;;;;5090883;28;19916;-65
2022/09/08 05:26:46;;;;;;;;;;;;;;;;;;5092778;28;20007;-65
2022/09/08 05:29:11;;;;;;;;;;;;;;;;;;5067667;28;19912;-65
2022/09/08 05:31:36;;;;;;;;;;;;;;;;;;5071951;28;19915;-64
2022/09/08 05:34:02;;;;;;;;;;;;;;;;;;5072170;28;19920;-65
2022/09/08 05:36:27;;;;;;;;;;;;;;;;;;5087286;28;19912;-66
2022/09/08 05:38:52;;;;;;;;;;;;;;;;;;5069225;28;19965;-64
2022/09/08 05:41:17;;;;;;;;;;;;;;;;;;5062595;28;19919;-65
2022/09/08 05:43:42;;;;;;;;;;;;;;;;;;5074377;28;19943;-65
2022/09/08 05:46:08;;;;;;;;;;;;;;;;;;5078964;28;20429;-67
2022/09/08 05:48:34;;;;;;;;;;;;;;;;;;5068358;28;20024;-65
2022/09/08 05:50:59;;;;;;;;;;;;;;;;;;5075664;28;19999;-66
2022/09/08 05:53:24;;;;;;;;;;;;;;;;;;5079445;28;20334;-67
2022/09/08 05:55:49;;;;;;;;;;;;;;;;;;5081725;28;19994;-65
2022/09/08 05:58:14;;;;;;;;;;;;;;;;;;5080320;28;19975;-65
2022/09/08 06:00:40;;;;;;;;;;;;;;;;;;5076895;28;19912;-66
2022/09/08 06:03:05;;;;;;;;;;;;;;;;;;5063965;28;19912;-66
2022/09/08 06:05:30;;;;;;;;;;;;;;;;;;5069662;28;19957;-66
2022/09/08 06:07:55;;;;;;;;;;;;;;;;;;5075953;28;20268;-65
2022/09/08 06:10:20;;;;;;;;;;;;;;;;;;5089304;28;20316;-65
2022/09/08 06:12:45;;;;;;;;;;;;;;;;;;5075588;28;19912;-65
2022/09/08 06:15:10;;;;;;;;;;;;;;;;;;5054942;28;19924;-65
2022/09/08 06:17:36;;;;;;;;;;;;;;;;;;5087824;28;20359;-65
2022/09/08 06:20:01;;;;;;;;;;;;;;;;;;5063728;28;20261;-65
2022/09/08 06:22:26;;;;;;;;;;;;;;;;;;5068487;28;20015;-65
2022/09/08 06:24:52;;;;;;;;;;;;;;;;;;5095396;28;19912;-64
2022/09/08 06:27:17;;;;;;;;;;;;;;;;;;5077299;28;20388;-65
2022/09/08 06:29:42;;;;;;;;;;;;;;;;;;5075338;28;20430;-64
2022/09/08 06:32:07;;;;;;;;;;;;;;;;;;5064873;28;19920;-64
2022/09/08 06:34:32;;;;;;;;;;;;;;;;;;5057134;28;19999;-65
2022/09/08 06:36:57;;;;;;;;;;;;;;;;;;5075901;28;19912;-64
2022/09/08 06:39:22;;;;;;;;;;;;;;;;;;5074595;28;20289;-64
2022/09/08 06:41:47;;;;;;;;;;;;;;;;;;5078570;28;20417;-64
2022/09/08 06:44:16;;;;;;;;;;;;;;;;;;5093251;28;20400;-65
2022/09/08 06:46:41;;;;;;;;;;;;;;;;;;5080437;28;19922;-65
2022/09/08 06:49:06;;;;;;;;;;;;;;;;;;5072475;28;19908;-65
2022/09/08 06:51:31;;;;;;;;;;;;;;;;;;5092768;28;20364;-65
2022/09/08 06:53:57;;;;;;;;;;;;;;;;;;5082967;28;19913;-65
2022/09/08 06:56:23;;;;;;;;;;;;;;;;;;5086039;28;20011;-65
2022/09/08 06:58:48;;;;;;;;;;;;;;;;;;5094402;28;19999;-63
2022/09/08 07:01:13;;;;;;;;;;;;;;;;;;5094787;28;20379;-65
2022/09/08 07:03:38;;;;;;;;;;;;;;;;;;5080340;28;20373;-64
2022/09/08 07:06:03;;;;;;;;;;;;;;;;;;5072456;28;20380;-65
2022/09/08 07:08:28;;;;;;;;;;;;;;;;;;5079583;28;20375;-65
2022/09/08 07:10:53;;;;;;;;;;;;;;;;;;5093973;28;19919;-65
2022/09/08 07:13:19;;;;;;;;;;;;;;;;;;5073257;28;19919;-65
2022/09/08 07:15:44;;;;;;;;;;;;;;;;;;5091521;28;19987;-65
2022/09/08 07:18:09;;;;;;;;;;;;;;;;;;5085503;28;19912;-65
2022/09/08 07:20:34;;;;;;;;;;;;;;;;;;5083708;28;19954;-65
2022/09/08 07:23:00;;;;;;;;;;;;;;;;;;5094300;28;19909;-66
2022/09/08 07:25:25;;;;;;;;;;;;;;;;;;5089086;28;19951;-66
2022/09/08 07:27:52;;;;;;;;;;;;;;;;;;5093879;28;20307;-66
2022/09/08 07:30:17;;;;;;;;;;;;;;;;;;5076102;28;19908;-66
2022/09/08 07:32:42;;;;;;;;;;;;;;;;;;5081209;28;20433;-65
2022/09/08 07:35:07;;;;;;;;;;;;;;;;;;5090756;28;20376;-66
2022/09/08 07:37:32;;;;;;;;;;;;;;;;;;5081716;28;19931;-64
2022/09/08 07:39:59;;;;;;;;;;;;;;;;;;5075498;28;20364;-66
2022/09/08 07:42:24;;;;;;;;;;;;;;;;;;5082454;28;20218;-64
2022/09/08 07:44:49;;;;;;;;;;;;;;;;;;5086316;28;19916;-65
2022/09/08 07:47:14;;;;;;;;;;;;;;;;;;5083417;28;20144;-65
2022/09/08 07:49:39;;;;;;;;;;;;;;;;;;5055587;28;19931;-65
2022/09/08 07:52:05;;;;;;;;;;;;;;;;;;5074376;28;20319;-64
2022/09/08 07:54:30;;;;;;;;;;;;;;;;;;5057098;28;19912;-65
2022/09/08 07:56:55;;;;;;;;;;;;;;;;;;5076519;28;20299;-65
2022/09/08 07:59:20;;;;;;;;;;;;;;;;;;5071762;28;19912;-65
2022/09/08 08:01:46;;;;;;;;;;;;;;;;;;5093465;28;19909;-65
2022/09/08 08:04:11;;;;;;;;;;;;;;;;;;5070766;28;19912;-65
2022/09/08 08:06:36;;;;;;;;;;;;;;;;;;5085812;28;19978;-64
2022/09/08 08:09:02;;;;;;;;;;;;;;;;;;5065794;28;20016;-64
2022/09/08 08:11:28;;;;;;;;;;;;;;;;;;5085602;28;19962;-65
2022/09/08 08:13:53;;;;;;;;;;;;;;;;;;5054565;28;19916;-65
2022/09/08 08:16:18;;;;;;;;;;;;;;;;;;5073761;28;19964;-65
2022/09/08 08:18:43;;;;;;;;;;;;;;;;;;5083362;28;19923;-64
2022/09/08 08:21:09;;;;;;;;;;;;;;;;;;5070245;28;19908;-65
2022/09/08 08:23:34;;;;;;;;;;;;;;;;;;5090086;28;19914;-65
2022/09/08 08:25:59;;;;;;;;;;;;;;;;;;5084930;28;19916;-65
2022/09/08 08:28:24;;;;;;;;;;;;;;;;;;5092705;28;20352;-67
2022/09/08 08:30:49;;;;;;;;;;;;;;;;;;5087536;28;19920;-65
2022/09/08 08:33:14;;;;;;;;;;;;;;;;;;5071801;28;19919;-65
2022/09/08 08:35:40;;;;;;;;;;;;;;;;;;5053794;28;19978;-65
2022/09/08 08:38:05;;;;;;;;;;;;;;;;;;5076798;28;20411;-65
2022/09/08 08:40:30;;;;;;;;;;;;;;;;;;5077245;28;19920;-65
2022/09/08 08:42:55;;;;;;;;;;;;;;;;;;5073706;28;19916;-65
2022/09/08 08:45:20;;;;;;;;;;;;;;;;;;5070448;28;19916;-66
2022/09/08 08:47:46;;;;;;;;;;;;;;;;;;5082435;28;20327;-65
2022/09/08 08:50:12;;;;;;;;;;;;;;;;;;5075042;28;20517;-65
2022/09/08 08:52:37;;;;;;;;;;;;;;;;;;5076828;28;19920;-65
2022/09/08 08:55:03;;;;;;;;;;;;;;;;;;5064467;28;19961;-65
2022/09/08 08:57:28;;;;;;;;;;;;;;;;;;5071952;28;20380;-65
2022/09/08 08:59:54;;;;;;;;;;;;;;;;;;5054261;28;19915;-65
2022/09/08 09:02:19;;;;;;;;;;;;;;;;;;5055518;28;19908;-65
2022/09/08 09:04:44;;;;;;;;;;;;;;;;;;5087123;28;19970;-65
2022/09/08 09:07:10;;;;;;;;;;;;;;;;;;5073152;28;19912;-65
2022/09/08 09:09:35;;;;;;;;;;;;;;;;;;5071589;28;19912;-65
2022/09/08 09:12:00;;;;;;;;;;;;;;;;;;5054203;28;20365;-66
2022/09/08 09:14:27;;;;;;;;;;;;;;;;;;5088361;28;19959;-65
2022/09/08 09:16:52;;;;;;;;;;;;;;;;;;5052550;28;19928;-65
2022/09/08 09:19:18;;;;;;;;;;;;;;;;;;5071862;28;19915;-65
2022/09/08 09:21:43;;;;;;;;;;;;;;;;;;5085083;28;20190;-64
2022/09/08 09:24:08;;;;;;;;;;;;;;;;;;5072242;28;19935;-64
2022/09/08 09:26:33;;;;;;;;;;;;;;;;;;5078758;28;19920;-66
2022/09/08 09:28:58;;;;;;;;;;;;;;;;;;5076141;28;19936;-65
2022/09/08 09:31:26;;;;;;;;;;;;;;;;;;5082868;28;20415;-65
2022/09/08 09:33:51;;;;;;;;;;;;;;;;;;5077409;28;19909;-66
2022/09/08 09:36:16;;;;;;;;;;;;;;;;;;5078120;28;19926;-65
2022/09/08 09:38:42;;;;;;;;;;;;;;;;;;5077634;28;19912;-65
2022/09/08 09:41:07;;;;;;;;;;;;;;;;;;5073593;28;19913;-65
2022/09/08 09:43:33;;;;;;;;;;;;;;;;;;5070853;28;19913;-65
2022/09/08 09:45:58;;;;;;;;;;;;;;;;;;5078649;28;19958;-65
2022/09/08 09:48:23;;;;;;;;;;;;;;;;;;5064746;28;19967;-65
2022/09/08 09:50:48;;;;;;;;;;;;;;;;;;5089648;28;20030;-65
2022/09/08 09:53:14;;;;;;;;;;;;;;;;;;5083627;28;19946;-64
2022/09/08 09:55:39;;;;;;;;;;;;;;;;;;5088993;28;20003;-65
2022/09/08 09:58:04;;;;;;;;;;;;;;;;;;5089898;28;20379;-65
2022/09/08 10:00:29;;;;;;;;;;;;;;;;;;5075441;28;19948;-66
2022/09/08 10:02:56;;;;;;;;;;;;;;;;;;5077440;28;19966;-66
2022/09/08 10:05:21;;;;;;;;;;;;;;;;;;5085222;28;22900;-66
2022/09/08 10:07:46;;;;;;;;;;;;;;;;;;5071259;28;19916;-66
2022/09/08 10:10:11;;;;;;;;;;;;;;;;;;5075650;28;19913;-66
2022/09/08 10:12:37;;;;;;;;;;;;;;;;;;5083351;28;19912;-65
2022/09/08 10:15:02;;;;;;;;;;;;;;;;;;5086516;28;19924;-65
2022/09/08 10:17:27;;;;;;;;;;;;;;;;;;5073538;28;20347;-65
2022/09/08 10:19:52;;;;;;;;;;;;;;;;;;5080804;28;19961;-65
2022/09/08 10:22:18;;;;;;;;;;;;;;;;;;5078848;28;20050;-65
2022/09/08 10:24:43;;;;;;;;;;;;;;;;;;5074584;28;19913;-65
2022/09/08 10:27:08;;;;;;;;;;;;;;;;;;5080725;28;19925;-66
2022/09/08 10:29:35;;;;;;;;;;;;;;;;;;5090852;28;19912;-66
2022/09/08 10:32:01;;;;;;;;;;;;;;;;;;5082716;28;20126;-66
2022/09/08 10:34:26;;;;;;;;;;;;;;;;;;5081030;28;19915;-65
2022/09/08 10:36:51;;;;;;;;;;;;;;;;;;5073200;28;20357;-66
2022/09/08 10:39:16;;;;;;;;;;;;;;;;;;5092792;28;19916;-66
2022/09/08 10:41:41;;;;;;;;;;;;;;;;;;5058352;28;19911;-66
2022/09/08 10:44:07;;;;;;;;;;;;;;;;;;5073797;28;20014;-65
2022/09/08 10:46:32;;;;;;;;;;;;;;;;;;5076077;28;19970;-66
2022/09/08 10:48:57;;;;;;;;;;;;;;;;;;5059319;28;19917;-65
2022/09/08 10:51:22;;;;;;;;;;;;;;;;;;5090263;28;19912;-66
2022/09/08 10:53:47;;;;;;;;;;;;;;;;;;5059107;28;19946;-65
2022/09/08 10:56:13;;;;;;;;;;;;;;;;;;5090167;28;19939;-65
2022/09/08 10:58:38;;;;;;;;;;;;;;;;;;5074770;28;20315;-65
2022/09/08 11:01:03;;;;;;;;;;;;;;;;;;5078699;28;19913;-66
2022/09/08 11:03:28;;;;;;;;;;;;;;;;;;5082075;28;20971;-66
2022/09/08 11:05:54;;;;;;;;;;;;;;;;;;5081713;28;19959;-65
2022/09/08 11:08:19;;;;;;;;;;;;;;;;;;5081472;28;19952;-65
2022/09/08 11:10:44;;;;;;;;;;;;;;;;;;5085644;28;19912;-66
2022/09/08 11:13:12;;;;;;;;;;;;;;;;;;5072560;28;19960;-65
2022/09/08 11:15:37;;;;;;;;;;;;;;;;;;5055107;28;20376;-65
2022/09/08 11:18:02;;;;;;;;;;;;;;;;;;5081457;28;20007;-65
2022/09/08 11:20:27;;;;;;;;;;;;;;;;;;5087039;28;19955;-65
2022/09/08 11:22:52;;;;;;;;;;;;;;;;;;5078665;28;19923;-65
2022/09/08 11:25:17;;;;;;;;;;;;;;;;;;5061862;28;20280;-65
2022/09/08 11:27:42;;;;;;;;;;;;;;;;;;5068489;28;19916;-65
2022/09/08 11:30:08;;;;;;;;;;;;;;;;;;5062412;28;19912;-65
2022/09/08 11:32:33;;;;;;;;;;;;;;;;;;5077454;28;19916;-64
2022/09/08 11:34:58;;;;;;;;;;;;;;;;;;5073954;28;19920;-65
2022/09/08 11:37:23;;;;;;;;;;;;;;;;;;5073960;28;19912;-65
2022/09/08 11:39:49;;;;;;;;;;;;;;;;;;5073261;28;19958;-65
2022/09/08 11:42:17;;;;;;;;;;;;;;;;;;5062458;28;20419;-65
2022/09/08 11:44:42;;;;;;;;;;;;;;;;;;5079479;28;19912;-65
2022/09/08 11:47:07;;;;;;;;;;;;;;;;;;5072676;28;19916;-64
2022/09/08 11:49:33;;;;;;;;;;;;;;;;;;5078742;28;19916;-67
2022/09/08 11:51:58;;;;;;;;;;;;;;;;;;5089358;28;20277;-67
2022/09/08 11:54:23;;;;;;;;;;;;;;;;;;5077825;28;20291;-65
2022/09/08 11:56:49;;;;;;;;;;;;;;;;;;5075954;28;19951;-65
2022/09/08 11:59:14;;;;;;;;;;;;;;;;;;5067080;28;20364;-66
2022/09/08 12:01:40;;;;;;;;;;;;;;;;;;5053919;28;19938;-69
2022/09/08 12:04:05;;;;;;;;;;;;;;;;;;5084738;28;20426;-68
2022/09/08 12:06:30;;;;;;;;;;;;;;;;;;5085731;28;20306;-68
2022/09/08 12:08:55;;;;;;;;;;;;;;;;;;5074356;28;19913;-73
2022/09/08 12:11:20;;;;;;;;;;;;;;;;;;5079971;28;19912;-68
2022/09/08 12:13:46;;;;;;;;;;;;;;;;;;5078206;28;19968;-74
2022/09/08 12:16:11;;;;;;;;;;;;;;;;;;5069192;28;20042;-65
2022/09/08 12:18:37;;;;;;;;;;;;;;;;;;5057370;28;19916;-69
2022/09/08 12:21:02;;;;;;;;;;;;;;;;;;5077213;28;19919;-71
2022/09/08 12:23:28;;;;;;;;;;;;;;;;;;5073915;28;19908;-67
2022/09/08 12:25:53;;;;;;;;;;;;;;;;;;5082917;28;20388;-70
2022/09/08 12:28:18;;;;;;;;;;;;;;;;;;5071402;28;20002;-73
2022/09/08 12:30:44;;;;;;;;;;;;;;;;;;5079064;28;19920;-70
2022/09/08 12:33:10;;;;;;;;;;;;;;;;;;5080463;28;19908;-69
2022/09/08 12:35:35;;;;;;;;;;;;;;;;;;5071355;28;19916;-69
2022/09/08 12:38:00;;;;;;;;;;;;;;;;;;5082543;28;19912;-63
2022/09/08 12:40:25;;;;;;;;;;;;;;;;;;5071291;28;20056;-65
2022/09/08 12:42:51;;;;;;;;;;;;;;;;;;5072158;28;19919;-66
2022/09/08 12:45:17;;;;;;;;;;;;;;;;;;5069329;28;19909;-67
2022/09/08 12:47:43;;;;;;;;;;;;;;;;;;5074705;28;20350;-70
2022/09/08 12:50:08;;;;;;;;;;;;;;;;;;5073719;28;19912;-69
2022/09/08 12:52:34;;;;;;;;;;;;;;;;;;5064572;28;19912;-67
2022/09/08 12:54:59;;;;;;;;;;;;;;;;;;5085712;28;19935;-69
2022/09/08 12:57:24;;;;;;;;;;;;;;;;;;5081895;28;19923;-66
2022/09/08 12:59:49;;;;;;;;;;;;;;;;;;5063453;28;19908;-67
2022/09/08 13:02:15;;;;;;;;;;;;;;;;;;5082496;28;20414;-68
2022/09/08 13:04:40;;;;;;;;;;;;;;;;;;5073977;28;19912;-66
2022/09/08 13:07:08;;;;;;;;;;;;;;;;;;5052067;28;19962;-68
2022/09/08 13:09:33;;;;;;;;;;;;;;;;;;5082280;28;19916;-68
2022/09/08 13:12:00;;;;;;;;;;;;;;;;;;5081271;28;19978;-66
2022/09/08 13:14:25;;;;;;;;;;;;;;;;;;5083784;28;19912;-70
2022/09/08 13:16:50;;;;;;;;;;;;;;;;;;5054155;28;20456;-68
2022/09/08 13:19:15;;;;;;;;;;;;;;;;;;5081796;28;19919;-67
2022/09/08 13:21:41;;;;;;;;;;;;;;;;;;5073063;28;19959;-67
2022/09/08 13:24:06;;;;;;;;;;;;;;;;;;5066674;28;19995;-66
2022/09/08 13:26:31;;;;;;;;;;;;;;;;;;5075725;28;19920;-66
2022/09/08 13:28:58;;;;;;;;;;;;;;;;;;5062556;28;20299;-65
2022/09/08 13:31:23;;;;;;;;;;;;;;;;;;5077805;28;19921;-77
2022/09/08 13:33:48;;;;;;;;;;;;;;;;;;5077769;28;19919;-73
2022/09/08 13:36:13;;;;;;;;;;;;;;;;;;5054558;28;19966;-71
2022/09/08 13:38:38;;;;;;;;;;;;;;;;;;5072545;28;20324;-68
2022/09/08 13:41:03;;;;;;;;;;;;;;;;;;5057065;28;19916;-69
2022/09/08 13:43:28;;;;;;;;;;;;;;;;;;5075796;28;19912;-70
2022/09/08 13:45:53;;;;;;;;;;;;;;;;;;5058937;28;19951;-70
2022/09/08 13:48:22;;;;;;;;;;;;;;;;;;5070776;28;19938;-74
2022/09/08 13:50:47;;;;;;;;;;;;;;;;;;5063698;28;19928;-68
2022/09/08 13:53:12;;;;;;;;;;;;;;;;;;5079644;28;19991;-73
2022/09/08 13:55:38;;;;;;;;;;;;;;;;;;5064641;28;19912;-71
2022/09/08 13:58:03;;;;;;;;;;;;;;;;;;5080916;28;20375;-67
2022/09/08 14:00:28;;;;;;;;;;;;;;;;;;5082094;28;20008;-70
2022/09/08 14:02:53;;;;;;;;;;;;;;;;;;5079704;28;19925;-65
2022/09/08 14:05:19;;;;;;;;;;;;;;;;;;5076838;28;19924;-71
2022/09/08 14:07:44;;;;;;;;;;;;;;;;;;5081770;28;19923;-67
2022/09/08 14:10:09;;;;;;;;;;;;;;;;;;5078441;28;19962;-67
2022/09/08 14:12:34;;;;;;;;;;;;;;;;;;5059280;28;19920;-71
2022/09/08 14:14:59;;;;;;;;;;;;;;;;;;5066814;28;20284;-69
2022/09/08 14:17:25;;;;;;;;;;;;;;;;;;5088776;28;20413;-69
2022/09/08 14:19:50;;;;;;;;;;;;;;;;;;5091284;28;20373;-70
2022/09/08 14:22:20;;;;;;;;;;;;;;;;;;5065647;28;20360;-67
2022/09/08 14:24:46;;;;;;;;;;;;;;;;;;5077513;28;19912;-69
2022/09/08 14:27:11;;;;;;;;;;;;;;;;;;5073903;28;19916;-67
2022/09/08 14:29:36;;;;;;;;;;;;;;;;;;5077703;28;19916;-72
2022/09/08 14:32:01;;;;;;;;;;;;;;;;;;5088196;28;19915;-66
2022/09/08 14:34:26;;;;;;;;;;;;;;;;;;5082434;28;19908;-64
2022/09/08 14:36:52;;;;;;;;;;;;;;;;;;5067195;28;20258;-67
2022/09/08 14:39:17;;;;;;;;;;;;;;;;;;5080416;28;20338;-61
2022/09/08 14:41:42;;;;;;;;;;;;;;;;;;5082776;28;19919;-69
2022/09/08 14:44:07;;;;;;;;;;;;;;;;;;5085131;28;19912;-70
2022/09/08 14:46:32;;;;;;;;;;;;;;;;;;5054795;28;19924;-71
2022/09/08 14:48:59;;;;;;;;;;;;;;;;;;5084953;28;20215;-68
2022/09/08 14:51:24;;;;;;;;;;;;;;;;;;5069038;28;20025;-70
2022/09/08 14:53:49;;;;;;;;;;;;;;;;;;5061122;28;20380;-69
2022/09/08 14:56:14;;;;;;;;;;;;;;;;;;5078432;28;19912;-70
2022/09/08 14:58:40;;;;;;;;;;;;;;;;;;5075324;28;19920;-70
2022/09/08 15:01:05;;;;;;;;;;;;;;;;;;5060360;28;19916;-70
2022/09/08 15:03:31;;;;;;;;;;;;;;;;;;5060266;28;19912;-71
2022/09/08 15:05:56;;;;;;;;;;;;;;;;;;5066462;28;19912;-70
2022/09/08 15:08:21;;;;;;;;;;;;;;;;;;5083641;28;20652;-68
2022/09/08 15:10:46;;;;;;;;;;;;;;;;;;5087776;28;20310;-70
2022/09/08 15:13:12;;;;;;;;;;;;;;;;;;5074202;28;19912;-70
2022/09/08 15:15:37;;;;;;;;;;;;;;;;;;5064373;28;19963;-71
2022/09/08 15:18:02;;;;;;;;;;;;;;;;;;5083201;28;19919;-70
2022/09/08 15:20:27;;;;;;;;;;;;;;;;;;5078746;28;19958;-71
2022/09/08 15:22:53;;;;;;;;;;;;;;;;;;5076757;28;20359;-71
2022/09/08 15:25:19;;;;;;;;;;;;;;;;;;5089525;28;20387;-70
2022/09/08 15:27:44;;;;;;;;;;;;;;;;;;5089605;28;19927;-70
2022/09/08 15:30:09;;;;;;;;;;;;;;;;;;5084562;28;19924;-70
2022/09/08 15:32:34;;;;;;;;;;;;;;;;;;5077826;28;19916;-70
2022/09/08 15:35:00;;;;;;;;;;;;;;;;;;5082536;28;20413;-70
2022/09/08 15:37:25;;;;;;;;;;;;;;;;;;5069707;28;19912;-70
2022/09/08 15:39:52;;;;;;;;;;;;;;;;;;5080644;28;20364;-69
2022/09/08 15:42:17;;;;;;;;;;;;;;;;;;5073767;28;19931;-70
2022/09/08 15:44:43;;;;;;;;;;;;;;;;;;5072820;28;19920;-70
2022/09/08 15:47:09;;;;;;;;;;;;;;;;;;5071017;28;19920;-69
2022/09/08 15:49:34;;;;;;;;;;;;;;;;;;5072801;28;19923;-70
2022/09/08 15:51:59;;;;;;;;;;;;;;;;;;5086294;28;19912;-70
2022/09/08 15:54:24;;;;;;;;;;;;;;;;;;5081631;28;19942;-70
2022/09/08 15:56:49;;;;;;;;;;;;;;;;;;5089972;28;19916;-69
2022/09/08 15:59:15;;;;;;;;;;;;;;;;;;5062444;28;20368;-70
2022/09/08 16:01:40;;;;;;;;;;;;;;;;;;5055274;28;20432;-70
2022/09/08 16:04:05;;;;;;;;;;;;;;;;;;5055357;28;19916;-70
2022/09/08 16:06:31;;;;;;;;;;;;;;;;;;5083960;28;20280;-70
2022/09/08 16:08:56;;;;;;;;;;;;;;;;;;5073139;28;20059;-69
2022/09/08 16:11:21;;;;;;;;;;;;;;;;;;5052856;28;21703;-70
2022/09/08 16:13:46;;;;;;;;;;;;;;;;;;5055341;28;19938;-68
2022/09/08 16:16:11;;;;;;;;;;;;;;;;;;5058384;28;19970;-70
2022/09/08 16:18:36;;;;;;;;;;;;;;;;;;5080094;28;19929;-70
2022/09/08 16:21:02;;;;;;;;;;;;;;;;;;5083720;28;19919;-68
2022/09/08 16:23:27;;;;;;;;;;;;;;;;;;5080769;28;19935;-70
2022/09/08 16:25:52;;;;;;;;;;;;;;;;;;5060017;28;19916;-70
2022/09/08 16:28:17;;;;;;;;;;;;;;;;;;5074751;28;20021;-69
2022/09/08 16:30:42;;;;;;;;;;;;;;;;;;5065361;28;19912;-69
2022/09/08 16:33:07;;;;;;;;;;;;;;;;;;5077226;28;20056;-70
2022/09/08 16:35:33;;;;;;;;;;;;;;;;;;5089464;28;20363;-69
2022/09/08 16:37:58;;;;;;;;;;;;;;;;;;5075060;28;19913;-68
2022/09/08 16:40:24;;;;;;;;;;;;;;;;;;5052952;28;20343;-69